WXM80 ListenWXM80 Stop

You find our weather info also at:

UK Metoffice

WeatherCloud

Weather Underground

Northeastern Weather Network

AWEKAS

Citizen Weather Observer Program (CWOP)

HAMweather, WeatherForYou, PWS Weather


Weather Underground History page Text

Daily Summary for September 6, 2017 Units:  Metric    English   Both
« Previous Day
Next Day »
Daily Weekly Monthly Yearly Custom
  High: Low: Average:
Temperature: 23 °C 16.7 °C 19.9 °C
Dew Point: 21.7 °C 16.1 °C 18.4 °C
Humidity: 96 % 81 % 91 %
Wind Speed: 11.6 km/h 0 km/h 2.3 km/h
Wind Gust: 20.4 km/h - -
Wind:- - SE
Pressure: 1010.7 hPa 1007.7 hPa -
Precipitation: 20.32 mm    
Historical Graphs
 
 
Tabular Data for September 6, 2017
Time Temperature Dew Point Pressure Wind Wind Speed Wind Gust Humidity Rainfall Rate (Hourly)
00:02 21.1 °C 19.8 °C 1008 hPa Calm     92 % 0 mm
00:07 21.1 °C 19.8 °C 1008 hPa Calm     92 % 0 mm
00:12 21.1 °C 19.6 °C 1008 hPa Calm     91 % 0 mm
00:17 21 °C 19.5 °C 1008 hPa Calm     91 % 0 mm
00:27 20.9 °C 19.4 °C 1008 hPa Calm     91 % 0 mm
00:32 20.8 °C 19.3 °C 1008.4 hPa Calm     91 % 0 mm
00:37 20.8 °C 19.3 °C 1008 hPa Calm     91 % 0 mm
00:42 20.8 °C 19.4 °C 1008.4 hPa Calm     92 % 0 mm
00:47 20.7 °C 19.4 °C 1008.4 hPa Calm     92 % 0 mm
00:52 20.7 °C 19.3 °C 1008.4 hPa Calm     92 % 0 mm
00:57 20.7 °C 19.3 °C 1008.7 hPa Calm     92 % 0 mm
01:02 20.6 °C 19.1 °C 1008.7 hPa Calm     91 % 0 mm
01:07 20.6 °C 19.1 °C 1008.7 hPa Calm     91 % 0 mm
01:13 20.4 °C 18.9 °C 1008.7 hPa Calm     91 % 0 mm
01:18 20.4 °C 19.1 °C 1008.4 hPa Calm     92 % 0 mm
01:23 20.3 °C 19 °C 1008.4 hPa Calm     92 % 0 mm
01:28 20.3 °C 19 °C 1008.4 hPa Calm     92 % 0 mm
01:33 20.3 °C 19.1 °C 1008.4 hPa Calm     93 % 0 mm
01:38 20.2 °C 19.1 °C 1008.4 hPa Calm     93 % 0 mm
01:43 20.2 °C 19 °C 1008.4 hPa Calm     93 % 0 mm
01:48 20.1 °C 18.9 °C 1008.4 hPa Calm     93 % 0 mm
01:53 20.1 °C 18.9 °C 1008.7 hPa Calm     93 % 0 mm
01:58 20.1 °C 18.9 °C 1008.4 hPa Calm     93 % 0 mm
02:03 20.1 °C 19.1 °C 1008.4 hPa Calm     94 % 0 mm
02:13 20.1 °C 19.1 °C 1008.7 hPa Calm     94 % 0 mm
02:18 20 °C 19 °C 1008.7 hPa Calm     94 % 0 mm
02:20 20 °C 19 °C 1008.7 hPa Calm     94 % 0 mm
02:30 20 °C 19 °C 1008.7 hPa Calm     94 % 0 mm
02:35 20 °C 19 °C 1008.4 hPa Calm     94 % 0 mm
02:40 20.1 °C 19.1 °C 1008.4 hPa Calm     94 % 0 mm
02:45 20 °C 19 °C 1008.4 hPa Calm     94 % 0 mm
02:50 20 °C 19 °C 1008.4 hPa Calm     94 % 0 mm
02:55 20 °C 19 °C 1008.4 hPa Calm     94 % 0 mm
03:00 20 °C 19 °C 1008 hPa Calm     94 % 0 mm
03:05 20 °C 19 °C 1008 hPa Calm     94 % 0 mm
03:10 20 °C 19 °C 1008 hPa Calm     94 % 0 mm
03:15 19.9 °C 18.9 °C 1008 hPa Calm     94 % 0 mm
03:20 19.9 °C 18.9 °C 1008 hPa Calm     94 % 0 mm
03:25 19.9 °C 18.9 °C 1008 hPa Calm     94 % 0 mm
03:30 19.9 °C 18.9 °C 1008 hPa Calm     94 % 0 mm
03:35 19.9 °C 18.9 °C 1008 hPa Calm     94 % 0 mm
03:40 19.9 °C 18.9 °C 1008 hPa Calm     94 % 0 mm
03:50 19.9 °C 18.8 °C 1008 hPa WNW 0.2 km/h   93 % 0 mm
03:55 19.9 °C 18.8 °C 1008 hPa Calm     93 % 0 mm
04:01 19.9 °C 18.8 °C 1008 hPa Calm     93 % 0 mm
04:06 19.9 °C 18.8 °C 1007.7 hPa Calm   3.2 km/h 93 % 0 mm
04:11 19.9 °C 18.8 °C 1007.7 hPa Calm   1.6 km/h 93 % 0 mm
04:16 20 °C 18.8 °C 1008 hPa Calm     93 % 0 mm
04:20 20 °C 18.8 °C 1008 hPa Calm     93 % 0 mm
04:26 20 °C 18.7 °C 1008 hPa Calm   1.6 km/h 92 % 0 mm
04:31 20 °C 18.7 °C 1008 hPa Calm   1.6 km/h 92 % 0 mm
04:36 20 °C 18.7 °C 1008 hPa Calm   1.6 km/h 92 % 0 mm
04:41 20 °C 18.7 °C 1008 hPa Calm   1.6 km/h 92 % 0 mm
04:46 20 °C 18.7 °C 1008 hPa Calm   1.6 km/h 92 % 0 mm
04:51 20 °C 18.7 °C 1008 hPa Calm     92 % 0 mm
04:56 20 °C 18.7 °C 1008 hPa Calm     92 % 0 mm
05:01 20 °C 18.7 °C 1008 hPa Calm     92 % 0 mm
05:06 20 °C 18.7 °C 1008 hPa Calm     92 % 0 mm
05:11 20 °C 18.7 °C 1008 hPa Calm     92 % 0 mm
05:16 20 °C 18.7 °C 1008 hPa Calm     92 % 0 mm
05:21 20 °C 18.7 °C 1008 hPa Calm     92 % 0 mm
05:26 20 °C 18.7 °C 1008 hPa Calm     92 % 0 mm
05:31 20.1 °C 18.7 °C 1008 hPa Calm     92 % 0 mm
05:36 20.1 °C 18.7 °C 1008 hPa Calm     92 % 0 mm
05:41 20.1 °C 18.7 °C 1008 hPa Calm     92 % 0 mm
05:51 20.1 °C 18.8 °C 1008 hPa SSE 1.4 km/h 5.6 km/h 92 % 0 mm
05:56 20.1 °C 18.6 °C 1008 hPa SSE 3.1 km/h 5.6 km/h 91 % 0 mm
06:02 20.2 °C 18.7 °C 1008 hPa SSE 1.9 km/h 4.8 km/h 91 % 0 mm
06:07 20.3 °C 18.6 °C 1007.7 hPa Calm   3.7 km/h 90 % 0 mm
06:12 20.4 °C 18.7 °C 1007.7 hPa Calm     90 % 0 mm
06:17 20.5 °C 18.8 °C 1007.7 hPa Calm   1.9 km/h 90 % 0 mm
06:22 20.6 °C 18.8 °C 1007.7 hPa Calm   1.9 km/h 90 % 0 mm
06:32 20.7 °C 18.9 °C 1008 hPa Calm     90 % 0 mm
06:42 20.8 °C 19.3 °C 1007.7 hPa SE 0.2 km/h 1.9 km/h 91 % 0 mm
06:47 20.8 °C 19.3 °C 1007.7 hPa Calm     91 % 0 mm
06:52 20.8 °C 19.3 °C 1007.7 hPa Calm     91 % 0 mm
06:57 20.9 °C 19.6 °C 1007.7 hPa SSE 0.3 km/h 3.7 km/h 92 % 0 mm
06:59 21 °C 19.7 °C 1008 hPa West 0.2 km/h 5.6 km/h 92 % 0 mm
07:04 21.1 °C 19.9 °C 1008 hPa WSW 0.6 km/h 5.6 km/h 93 % 0 mm
07:09 21.2 °C 20 °C 1008 hPa Calm   3.2 km/h 93 % 0 mm
07:14 21.3 °C 20.3 °C 1008 hPa WSW 0.2 km/h 1.6 km/h 94 % 0 mm
07:19 21.4 °C 20.4 °C 1008 hPa WSW 0.6 km/h 1.9 km/h 94 % 0 mm
07:24 21.6 °C 20.6 °C 1008 hPa Calm     94 % 0 mm
07:29 21.7 °C 20.8 °C 1008 hPa Calm   3.7 km/h 95 % 0 mm
07:35 21.8 °C 20.9 °C 1008.4 hPa West 4 km/h 7.4 km/h 95 % 0 mm
07:40 21.8 °C 21 °C 1008.4 hPa Calm   3.7 km/h 95 % 0 mm
07:45 21.9 °C 21.1 °C 1008.4 hPa WSW 0.6 km/h 3.7 km/h 95 % 0 mm
07:55 22 °C 21.2 °C 1008.4 hPa WSW 0.2 km/h 1.9 km/h 95 % 0 mm
08:00 22.1 °C 21.3 °C 1008.4 hPa WSW 0.2 km/h 1.9 km/h 95 % 0 mm
08:05 22.1 °C 21.3 °C 1008.4 hPa West 1.8 km/h 3.7 km/h 95 % 0 mm
08:10 22.2 °C 21.3 °C 1008.4 hPa NW 2.7 km/h 6.4 km/h 95 % 0 mm
08:15 22.2 °C 21.2 °C 1008.4 hPa WNW 2.4 km/h 5.6 km/h 94 % 0 mm
08:20 22.2 °C 21.2 °C 1008.7 hPa WNW 0.2 km/h 1.6 km/h 94 % 0 mm
08:25 22.1 °C 21.1 °C 1008.4 hPa Calm   3.2 km/h 94 % 0 mm
08:30 22.1 °C 20.9 °C 1008.4 hPa Calm   6.4 km/h 93 % 0 mm
08:35 22 °C 20.8 °C 1008.7 hPa WNW 0.6 km/h 3.2 km/h 93 % 0 mm
08:40 21.9 °C 20.6 °C 1008.7 hPa Calm     92 % 0.25 mm
08:45 21.8 °C 20.5 °C 1008.4 hPa Calm     92 % 0.25 mm
08:50 21.8 °C 20.4 °C 1008.4 hPa Calm     92 % 0 mm
08:55 21.7 °C 20.4 °C 1008.4 hPa Calm     92 % 0 mm
09:01 21.7 °C 20.3 °C 1008.4 hPa Calm     92 % 0.25 mm
09:06 21.6 °C 20.3 °C 1008.7 hPa Calm     92 % 0.25 mm
09:11 21.6 °C 20.2 °C 1008.7 hPa Calm     92 % 0.25 mm
09:16 21.6 °C 20.2 °C 1008.7 hPa Calm     92 % 0.25 mm
09:21 21.5 °C 20.2 °C 1008.7 hPa Calm     92 % 0.25 mm
09:26 21.4 °C 20.1 °C 1009 hPa Calm     92 % 0.25 mm
09:31 21.4 °C 20.3 °C 1009 hPa Calm     93 % 0.25 mm
09:36 21.5 °C 20.3 °C 1009 hPa Calm     93 % 0.25 mm
09:37 21.5 °C 20.3 °C 1009 hPa Calm     93 % 0.25 mm
09:42 21.6 °C 20.6 °C 1009 hPa WNW 1.8 km/h 5.6 km/h 94 % 0 mm
09:47 21.7 °C 20.7 °C 1009 hPa North 1.1 km/h 3.7 km/h 94 % 0 mm
09:52 21.8 °C 20.8 °C 1009 hPa North 0.2 km/h 3.2 km/h 94 % 0 mm
09:57 21.9 °C 20.9 °C 1009.4 hPa WNW 3.2 km/h 5.6 km/h 94 % 0 mm
10:02 22 °C 21 °C 1009.4 hPa WNW 0.3 km/h 1.9 km/h 94 % 0 mm
10:07 22.1 °C 21.1 °C 1009.7 hPa WNW 0.6 km/h 5.6 km/h 94 % 0 mm
10:12 22.2 °C 21.2 °C 1009.7 hPa WNW 1.6 km/h 5.6 km/h 94 % 0 mm
10:17 22.2 °C 21.1 °C 1009.7 hPa WNW 1.6 km/h 3.7 km/h 93 % 0 mm
10:22 22.2 °C 21.1 °C 1010 hPa Calm     93 % 0 mm
10:27 22.3 °C 21.1 °C 1010 hPa WSW 0.3 km/h 5.6 km/h 93 % 0 mm
10:30 22.3 °C 20.9 °C 1010.4 hPa Calm   1.9 km/h 92 % 0 mm
10:35 22.2 °C 20.7 °C 1009.7 hPa Calm   1.6 km/h 91 % 0 mm
10:40 22.2 °C 20.7 °C 1009.7 hPa Calm     91 % 0 mm
10:45 22.2 °C 20.7 °C 1009.4 hPa Calm   5.6 km/h 91 % 0.25 mm
10:50 22.3 °C 21.2 °C 1009.4 hPa NNW 1 km/h 5.6 km/h 93 % 0.25 mm
10:55 22.5 °C 21.5 °C 1009.4 hPa North 1.9 km/h 5.6 km/h 94 % 0.25 mm
11:00 22.6 °C 21.4 °C 1009.4 hPa WNW 1.8 km/h 3.2 km/h 93 % 0.25 mm
11:05 22.7 °C 21.7 °C 1009.4 hPa North 1.4 km/h 4.8 km/h 94 % 0.25 mm
11:10 22.8 °C 21.6 °C 1009.4 hPa North 2.4 km/h 5.6 km/h 93 % 0.25 mm
11:15 22.9 °C 21.7 °C 1009.4 hPa NW 0.8 km/h 4.8 km/h 93 % 0.25 mm
11:20 22.9 °C 21.6 °C 1009.4 hPa WNW 3.5 km/h 5.6 km/h 92 % 0.25 mm
11:25 23 °C 21.6 °C 1009.4 hPa Calm     92 % 0.25 mm
11:30 23 °C 21.6 °C 1009.7 hPa West 0.5 km/h 7.4 km/h 92 % 0.25 mm
11:35 23 °C 21.4 °C 1009.7 hPa North 0.6 km/h   91 % 0.25 mm
11:40 23 °C 21.4 °C 1009.7 hPa Calm   1.9 km/h 91 % 0.25 mm
11:45 22.9 °C 21.4 °C 1009.7 hPa WNW 1 km/h 7.4 km/h 91 % 0 mm
11:50 22.9 °C 21.2 °C 1009.7 hPa NW 0.8 km/h 5.6 km/h 90 % 0 mm
11:55 22.9 °C 21.2 °C 1009.7 hPa WNW 0.2 km/h 8 km/h 90 % 0 mm
12:00 22.7 °C 20.4 °C 1009.7 hPa NNW 8.2 km/h 16.7 km/h 87 % 0 mm
12:05 22.3 °C 19.4 °C 1009.4 hPa NNE 9.7 km/h 16.7 km/h 84 % 0 mm
12:06 22.3 °C 19.4 °C 1009.4 hPa NNE 10.3 km/h 16.7 km/h 84 % 0 mm
12:11 21.8 °C 18.9 °C 1009.7 hPa North 8.7 km/h 18.5 km/h 84 % 0 mm
12:16 21.5 °C 18.7 °C 1009.7 hPa North 11.4 km/h 16.7 km/h 84 % 0 mm
12:21 21.2 °C 18.4 °C 1009.7 hPa North 9.7 km/h 16.7 km/h 84 % 0 mm
12:26 21 °C 18.2 °C 1009.7 hPa North 10.1 km/h 16.7 km/h 84 % 0 mm
12:31 20.8 °C 18.1 °C 1009.4 hPa North 8.5 km/h 18.5 km/h 84 % 0 mm
12:36 20.8 °C 18.2 °C 1009.7 hPa NNE 5.8 km/h 11.1 km/h 85 % 0 mm
12:41 20.7 °C 18.1 °C 1009.7 hPa North 7.1 km/h 14.8 km/h 85 % 0 mm
12:46 20.6 °C 17.9 °C 1009.7 hPa NNW 3.5 km/h 8 km/h 85 % 0 mm
12:51 20.4 °C 18 °C 1010 hPa NNE 7.1 km/h 7.4 km/h 86 % 0 mm
12:56 20.4 °C 17.9 °C 1010 hPa NNE 2.4 km/h 3.2 km/h 86 % 0 mm
13:01 20.3 °C 18.1 °C 1010 hPa NNE 0.2 km/h 1.9 km/h 87 % 0 mm
13:06 20.3 °C 18.1 °C 1009.7 hPa North 4 km/h 9.3 km/h 87 % 0 mm
13:12 20.3 °C 18.1 °C 1009.7 hPa North 2.9 km/h 5.6 km/h 87 % 0 mm
13:17 20.3 °C 18.1 °C 1009.7 hPa NNE 4 km/h 5.6 km/h 87 % 0 mm
13:22 20.3 °C 18.1 °C 1009.7 hPa ENE 3.2 km/h 9.3 km/h 87 % 0 mm
13:27 20.4 °C 18.4 °C 1009.7 hPa NNW 4.7 km/h 7.4 km/h 88 % 0 mm
13:32 20.6 °C 18.6 °C 1009.7 hPa NNE 1.8 km/h 7.4 km/h 88 % 0 mm
13:37 20.8 °C 18.6 °C 1009.7 hPa NE 2.9 km/h 5.6 km/h 87 % 0 mm
13:42 20.9 °C 18.5 °C 1009.7 hPa ENE 2.1 km/h 6.4 km/h 86 % 0 mm
13:47 21.2 °C 18.6 °C 1009.7 hPa NNE 5.3 km/h 11.1 km/h 85 % 0 mm
13:52 21.3 °C 18.4 °C 1009.7 hPa North 2.4 km/h 5.6 km/h 84 % 0 mm
13:57 21.4 °C 18.4 °C 1009.7 hPa NE 2.7 km/h 5.6 km/h 83 % 0 mm
14:02 21.4 °C 18.6 °C 1009.7 hPa North 1.4 km/h 5.6 km/h 84 % 0 mm
14:07 21.5 °C 18.5 °C 1009.7 hPa NNE 5.8 km/h 9.7 km/h 83 % 0 mm
14:12 21.5 °C 18.3 °C 1009.7 hPa North 1.8 km/h 6.4 km/h 82 % 0 mm
14:17 21.5 °C 18.3 °C 1009.7 hPa North 1.9 km/h 5.6 km/h 82 % 0 mm
14:23 21.4 °C 18.2 °C 1010 hPa North 3.7 km/h 7.4 km/h 82 % 0 mm
14:28 21.4 °C 18.2 °C 1010 hPa NNE 3.9 km/h 4.8 km/h 82 % 0 mm
14:33 21.3 °C 18.1 °C 1010 hPa NNE 4.2 km/h 7.4 km/h 82 % 0 mm
14:38 21.2 °C 17.9 °C 1010 hPa North 2.6 km/h 5.6 km/h 82 % 0 mm
14:43 21.1 °C 17.7 °C 1010 hPa North 6.6 km/h 7.4 km/h 81 % 0 mm
14:48 21.1 °C 17.7 °C 1009.7 hPa NNE 4.2 km/h 11.1 km/h 81 % 0 mm
14:53 21 °C 17.8 °C 1010 hPa NNW 0.5 km/h 3.7 km/h 82 % 0 mm
14:58 20.9 °C 17.8 °C 1009.7 hPa North 4.5 km/h 9.3 km/h 82 % 0 mm
15:03 20.9 °C 17.7 °C 1009.7 hPa NNW 5.3 km/h 6.4 km/h 82 % 0 mm
15:08 20.8 °C 17.8 °C 1009.4 hPa NE 3.2 km/h 6.4 km/h 83 % 0 mm
15:14 20.8 °C 18.1 °C 1009.4 hPa NE 1 km/h 5.6 km/h 84 % 0 mm
15:19 20.9 °C 18.3 °C 1009.4 hPa NNE 3.4 km/h 7.4 km/h 85 % 0 mm
15:24 20.9 °C 18.3 °C 1009.4 hPa NE 1.3 km/h 3.2 km/h 85 % 0 mm
15:29 20.9 °C 18.3 °C 1009.4 hPa NE 0.8 km/h 1.9 km/h 85 % 0 mm
15:34 20.9 °C 18.1 °C 1009.4 hPa NE 0.2 km/h 1.9 km/h 84 % 0 mm
15:39 20.9 °C 18.1 °C 1009.4 hPa NE 1.4 km/h 5.6 km/h 84 % 0 mm
15:44 20.9 °C 18.1 °C 1009.4 hPa NE 0.3 km/h 1.9 km/h 84 % 0 mm
15:49 20.8 °C 18.1 °C 1009.4 hPa ENE 0.3 km/h 1.9 km/h 84 % 0 mm
15:54 20.8 °C 18 °C 1009.4 hPa ENE 1.3 km/h 3.7 km/h 84 % 0 mm
15:59 20.7 °C 18.1 °C 1009.4 hPa NNE 4.3 km/h 8 km/h 85 % 0 mm
16:04 20.7 °C 18.1 °C 1009.7 hPa North 3.9 km/h 7.4 km/h 85 % 0 mm
16:10 20.7 °C 18.1 °C 1009.7 hPa NNE 5.6 km/h 9.3 km/h 85 % 0 mm
16:15 20.6 °C 17.9 °C 1009.7 hPa North 2.9 km/h 8 km/h 85 % 0 mm
16:20 20.5 °C 17.9 °C 1009.7 hPa North 4 km/h 9.7 km/h 85 % 0 mm
16:25 20.4 °C 18 °C 1009.7 hPa ENE 2.7 km/h 5.6 km/h 86 % 0.25 mm
16:30 20.3 °C 17.8 °C 1009.7 hPa NE 3.1 km/h 6.4 km/h 86 % 1.27 mm
16:35 20.2 °C 17.8 °C 1009.7 hPa NE 0.8 km/h 3.7 km/h 86 % 2.03 mm
16:40 20.1 °C 17.8 °C 1009.4 hPa NE 1.3 km/h 3.7 km/h 87 % 2.29 mm
16:45 19.9 °C 17.9 °C 1009.4 hPa North 0.3 km/h 3.2 km/h 88 % 2.79 mm
16:50 19.8 °C 17.9 °C 1009.4 hPa North 7.7 km/h 11.1 km/h 89 % 2.79 mm
16:55 19.7 °C 17.8 °C 1009.7 hPa NNE 3.4 km/h 7.4 km/h 89 % 2.79 mm
17:00 19.6 °C 17.7 °C 1010 hPa North 2.9 km/h 7.4 km/h 89 % 2.79 mm
17:05 19.4 °C 17.6 °C 1010 hPa North 5.5 km/h 9.3 km/h 89 % 2.79 mm
17:10 19.3 °C 17.4 °C 1010 hPa NNE 5.3 km/h 11.1 km/h 89 % 2.79 mm
17:15 19.2 °C 17.5 °C 1010 hPa NNE 9.7 km/h 16.7 km/h 90 % 2.79 mm
17:20 18.9 °C 17.3 °C 1010.4 hPa North 6 km/h 11.3 km/h 90 % 2.79 mm
17:25 18.7 °C 17.1 °C 1010 hPa West 5.6 km/h 11.1 km/h 90 % 2.54 mm
17:30 18.6 °C 16.9 °C 1010 hPa NE 9.3 km/h 14.8 km/h 90 % 1.52 mm
17:35 18.4 °C 16.9 °C 1010 hPa North 10 km/h 20.4 km/h 91 % 0.76 mm
17:40 18.3 °C 17 °C 1010 hPa North 11.6 km/h 16.7 km/h 92 % 0.76 mm
17:45 18.2 °C 16.9 °C 1010 hPa North 7.4 km/h 11.3 km/h 92 % 0.25 mm
17:50 18.1 °C 16.8 °C 1010.4 hPa NNE 6.6 km/h 11.3 km/h 92 % 0.25 mm
17:55 18 °C 16.7 °C 1010.4 hPa NNE 9.2 km/h 14.8 km/h 92 % 0.25 mm
18:00 17.9 °C 16.6 °C 1010.4 hPa NNE 11.4 km/h 14.8 km/h 92 % 0.25 mm
18:05 17.8 °C 16.5 °C 1010.4 hPa NNE 9.8 km/h 16.7 km/h 92 % 0.25 mm
18:10 17.8 °C 16.6 °C 1010.4 hPa NNW 10.8 km/h 13 km/h 93 % 0.25 mm
18:15 17.7 °C 16.6 °C 1010.4 hPa North 7.6 km/h 9.7 km/h 93 % 0.51 mm
18:20 17.7 °C 16.5 °C 1010.4 hPa NNE 6.3 km/h 14.8 km/h 93 % 0.51 mm
18:25 17.6 °C 16.4 °C 1010.4 hPa North 9.3 km/h 11.1 km/h 93 % 0.51 mm
18:30 17.5 °C 16.3 °C 1010.7 hPa North 9.7 km/h 16.7 km/h 93 % 0.51 mm
18:35 17.4 °C 16.3 °C 1010.4 hPa North 10.5 km/h 18.5 km/h 93 % 0.51 mm
18:41 17.4 °C 16.3 °C 1010.7 hPa North 4.8 km/h 9.3 km/h 93 % 0.25 mm
18:45 17.4 °C 16.3 °C 1010.4 hPa NNE 9.5 km/h 13 km/h 93 % 0.25 mm
18:51 17.4 °C 16.4 °C 1010.4 hPa NNE 6.1 km/h 9.7 km/h 94 % 0.25 mm
18:56 17.4 °C 16.4 °C 1010.4 hPa North 7.2 km/h 11.1 km/h 94 % 0.25 mm
19:01 17.4 °C 16.4 °C 1010.4 hPa NNE 10 km/h 16.1 km/h 94 % 0.25 mm
19:06 17.4 °C 16.4 °C 1010 hPa North 8.2 km/h 16.7 km/h 94 % 0.25 mm
19:11 17.4 °C 16.4 °C 1010.4 hPa NNE 6.4 km/h 9.3 km/h 94 % 0.25 mm
19:16 17.4 °C 16.4 °C 1010 hPa NE 1.8 km/h 5.6 km/h 94 % 0 mm
19:21 17.4 °C 16.4 °C 1010 hPa NE 1.4 km/h 7.4 km/h 94 % 0 mm
19:26 17.4 °C 16.4 °C 1010 hPa NE 3.4 km/h 7.4 km/h 94 % 0 mm
19:31 17.4 °C 16.4 °C 1010 hPa NNE 1 km/h 1.9 km/h 94 % 0 mm
19:36 17.4 °C 16.4 °C 1010 hPa NE 3.4 km/h 5.6 km/h 94 % 0 mm
19:41 17.4 °C 16.4 °C 1010 hPa NE 1.1 km/h 6.4 km/h 94 % 0 mm
19:46 17.4 °C 16.4 °C 1010.4 hPa ENE 2.9 km/h 5.6 km/h 94 % 0 mm
19:51 17.4 °C 16.4 °C 1010.4 hPa NNW 2.4 km/h 8 km/h 94 % 0 mm
19:56 17.4 °C 16.4 °C 1010 hPa NNE 4.2 km/h 7.4 km/h 94 % 0 mm
20:01 17.4 °C 16.4 °C 1010 hPa NNE 2.4 km/h 5.6 km/h 94 % 0 mm
20:06 17.4 °C 16.4 °C 1010 hPa NNE 4.5 km/h 9.3 km/h 94 % 0 mm
20:11 17.4 °C 16.4 °C 1010 hPa North 2.4 km/h 4.8 km/h 94 % 0 mm
20:16 17.4 °C 16.4 °C 1010.4 hPa North 1.8 km/h 5.6 km/h 94 % 0 mm
20:21 17.4 °C 16.4 °C 1010.4 hPa North 3.2 km/h 9.3 km/h 94 % 0 mm
20:26 17.4 °C 16.3 °C 1010.4 hPa NNE 4.8 km/h 5.6 km/h 93 % 0 mm
20:31 17.5 °C 16.3 °C 1010.4 hPa NNE 5 km/h 7.4 km/h 93 % 0 mm
20:33 17.5 °C 16.3 °C 1010.4 hPa Calm   5.6 km/h 93 % 0 mm
20:38 17.5 °C 16.3 °C 1010.4 hPa Calm     93 % 0 mm
20:43 17.6 °C 16.4 °C 1010.4 hPa North 0.3 km/h 1.9 km/h 93 % 0.51 mm
20:48 17.6 °C 16.4 °C 1010.4 hPa North 1.4 km/h 3.7 km/h 93 % 1.27 mm
20:53 17.6 °C 16.4 °C 1010.4 hPa NNW 0.8 km/h 3.7 km/h 93 % 2.54 mm
20:58 17.6 °C 16.4 °C 1010.4 hPa North 1.1 km/h 3.7 km/h 93 % 3.3 mm
21:03 17.6 °C 16.4 °C 1010 hPa North 0.3 km/h 1.9 km/h 93 % 3.56 mm
21:08 17.6 °C 16.4 °C 1010 hPa North 4.8 km/h 7.4 km/h 93 % 4.57 mm
21:13 17.6 °C 16.6 °C 1010.4 hPa North 3.4 km/h 7.4 km/h 94 % 4.57 mm
21:18 17.5 °C 16.5 °C 1010 hPa NNE 3.2 km/h 7.4 km/h 94 % 4.57 mm
21:23 17.4 °C 16.4 °C 1010 hPa North 5 km/h 9.3 km/h 94 % 4.83 mm
21:28 17.4 °C 16.4 °C 1010.4 hPa NNE 0.2 km/h 1.9 km/h 94 % 5.08 mm
21:30 17.3 °C 16.3 °C 1010.4 hPa NNE 1 km/h   94 % 5.08 mm
21:36 17.3 °C 16.3 °C 1010.4 hPa NNE 1.6 km/h 8 km/h 94 % 0 mm
21:41 17.3 °C 16.3 °C 1010 hPa NNE 1.6 km/h 4.8 km/h 94 % 0 mm
21:46 17.2 °C 16.2 °C 1010 hPa NNE 1.6 km/h 6.4 km/h 94 % 0.25 mm
21:51 17.2 °C 16.2 °C 1010 hPa NNE 1.6 km/h 8 km/h 94 % 0 mm
21:56 17.2 °C 16.2 °C 1010 hPa NNE 2.7 km/h 5.6 km/h 94 % 3.3 mm
22:01 17.1 °C 16.1 °C 1010 hPa NE 0.3 km/h 5.6 km/h 94 % 3.05 mm
22:06 17.1 °C 16.1 °C 1009.7 hPa North 0.8 km/h 5.6 km/h 94 % 2.79 mm
22:11 17.1 °C 16.1 °C 1010 hPa NE 1.6 km/h 5.6 km/h 94 % 2.79 mm
22:12 17.1 °C 16.1 °C 1010.4 hPa Calm     94 % 2.79 mm
22:17 17.1 °C 16.1 °C 1010.4 hPa NE 0.3 km/h 3.7 km/h 94 % 3.3 mm
22:22 17.1 °C 16.1 °C 1010 hPa Calm   1.9 km/h 94 % 3.81 mm
22:27 17 °C 16.2 °C 1009.7 hPa ENE 4.8 km/h 9.3 km/h 95 % 5.08 mm
22:29 17 °C 16.2 °C 1009.4 hPa ENE 3.1 km/h 7.4 km/h 95 % 5.08 mm
22:34 17 °C 16.2 °C 1009.7 hPa ENE 2.6 km/h 5.6 km/h 95 % 5.59 mm
22:39 16.9 °C 16.1 °C 1009.7 hPa North 1.6 km/h 3.7 km/h 95 % 5.84 mm
22:44 17 °C 16.2 °C 1009.7 hPa NNE 3.2 km/h 5.6 km/h 95 % 6.6 mm
22:49 17 °C 16.2 °C 1010 hPa ESE 3.5 km/h 7.4 km/h 95 % 6.86 mm
22:54 16.9 °C 16.1 °C 1009.7 hPa North 3.5 km/h 8 km/h 95 % 7.37 mm
22:59 16.9 °C 16.1 °C 1009.7 hPa ENE 1.3 km/h 3.7 km/h 95 % 7.87 mm
23:04 16.9 °C 16.1 °C 1009.7 hPa NNE 1 km/h 4.8 km/h 95 % 7.87 mm
23:09 16.9 °C 16.1 °C 1009.4 hPa North 6.4 km/h 9.7 km/h 95 % 7.87 mm
23:15 16.9 °C 16.2 °C 1009.7 hPa North 3.2 km/h 6.4 km/h 96 % 7.37 mm
23:21 16.8 °C 16.2 °C 1009.7 hPa North 3.2 km/h 8 km/h 96 % 0 mm
23:23 16.8 °C 16.2 °C 1009.7 hPa North 4.2 km/h 9.3 km/h 96 % 6.35 mm
23:26 16.9 °C 16.2 °C 1009.7 hPa North 5.1 km/h 13 km/h 96 % 5.84 mm
23:27 16.9 °C 16.2 °C 1009.7 hPa NNW 3.7 km/h 13 km/h 96 % 5.59 mm
23:28 16.8 °C 16.2 °C 1009.4 hPa North 4.7 km/h 13 km/h 96 % 5.59 mm
23:33 16.8 °C 16.2 °C 1009.4 hPa North 6.8 km/h 11.1 km/h 96 % 4.57 mm
23:36 16.8 °C 16.2 °C 1009 hPa NE 9 km/h 14.5 km/h 96 % 4.83 mm
23:42 16.8 °C 16.1 °C 1009.4 hPa ENE 3.4 km/h 13 km/h 96 % 4.32 mm
23:47 16.7 °C 16.1 °C 1009.4 hPa North 2.1 km/h 9.3 km/h 96 % 3.56 mm
23:52 16.7 °C 16.1 °C 1009 hPa ENE 2.9 km/h 5.6 km/h 96 % 3.3 mm
23:57 16.7 °C 16.1 °C 1009.4 hPa North 4.5 km/h 9.3 km/h 96 % 2.29 mm
Crab Meadow Weather
Compliments of Weather Underground - 3 mb

Script developed by  Jim McMurry - jmcmurry@mwt.net Adapted for the template by  Wim van der Kuil - Leuven-Template.eu

Recycling: Recycling 1 aluminum can saves enough energy to run your TV for 3 hours. Recycling aluminum cans saves 95% of the energy used to make cans from virgin ore.